Time;durP1;ratioP1;P1;durP2;ratioP2;P2;SDS_P1;SDS_P2;PMS_P1;PMS_P2;Temp;Humidity;BMP_temperature;BMP_pressure;BME280_temperature;BME280_humidity;BME280_pressure;Samples;Min_cycle;Max_cycle;Signal;HPM_P1;HPM_P2
2022/10/19 00:00:06;;;;;;;12.37;8.77;;;;;;;6.99;100.00;102156.06;2063592;28;20186;-61
2022/10/19 00:01:08;;;;;;;12.47;9.37;;;;;;;7.00;100.00;102151.34;2063355;28;20182;-61
2022/10/19 00:02:08;;;;;;;13.88;9.00;;;;;;;6.94;100.00;102141.81;2063541;28;20289;-61
2022/10/19 00:03:09;;;;;;;11.97;9.07;;;;;;;6.67;100.00;102098.88;2062225;28;20661;-61
2022/10/19 00:04:09;;;;;;;10.90;8.67;;;;;;;6.98;100.00;102150.94;2063379;28;20221;-61
2022/10/19 00:05:10;;;;;;;13.67;8.87;;;;;;;6.98;100.00;102142.66;2063222;28;20203;-63
2022/10/19 00:06:12;;;;;;;12.57;9.17;;;;;;;6.99;100.00;102141.47;2063777;28;20198;-61
2022/10/19 00:07:12;;;;;;;12.38;9.15;;;;;;;7.00;100.00;102138.38;2063394;28;20180;-61
2022/10/19 00:08:12;;;;;;;12.63;8.47;;;;;;;7.01;100.00;102134.44;2063602;28;20213;-61
2022/10/19 00:09:16;;;;;;;11.33;8.40;;;;;;;7.04;100.00;102146.69;2063530;28;20220;-61
2022/10/19 00:10:17;;;;;;;11.68;9.50;;;;;;;5.71;100.00;101927.84;2064598;28;20245;-61
2022/10/19 00:11:17;;;;;;;10.50;8.43;;;;;;;7.00;100.00;102134.81;2063418;28;20275;-61
2022/10/19 00:12:18;;;;;;;12.23;9.17;;;;;;;6.94;100.00;102123.31;2063933;28;20199;-61
2022/10/19 00:13:18;;;;;;;16.40;10.50;;;;;;;6.69;100.00;102086.31;2063575;28;20570;-61
2022/10/19 00:14:22;;;;;;;15.27;10.67;;;;;;;6.49;100.00;102067.50;2063804;28;20190;-62
2022/10/19 00:15:22;;;;;;;13.50;10.30;;;;;;;6.51;100.00;102062.44;2061765;28;20298;-61
2022/10/19 00:16:26;;;;;;;13.00;10.10;;;;;;;6.91;100.00;102135.06;2063216;28;20293;-62
2022/10/19 00:17:26;;;;;;;12.95;9.65;;;;;;;6.89;100.00;102129.16;2063292;28;20194;-62
2022/10/19 00:18:27;;;;;;;13.63;9.60;;;;;;;6.85;100.00;102127.47;2063333;28;20227;-62
2022/10/19 00:19:28;;;;;;;11.43;8.90;;;;;;;6.75;100.00;102106.06;2064008;28;20562;-61
2022/10/19 00:20:28;;;;;;;13.67;9.83;;;;;;;6.84;100.00;102128.66;2063742;28;20202;-61
2022/10/19 00:21:29;;;;;;;13.53;9.13;;;;;;;6.46;100.00;102065.50;2063344;28;20196;-61
2022/10/19 00:22:29;;;;;;;13.23;9.63;;;;;;;6.78;100.00;102125.44;2062950;28;20197;-61
2022/10/19 00:23:30;;;;;;;13.17;9.27;;;;;;;6.78;100.00;102130.94;2063292;28;20199;-61
2022/10/19 00:24:30;;;;;;;11.77;9.30;;;;;;;6.79;100.00;102128.97;2063723;28;20442;-61
2022/10/19 00:25:31;;;;;;;12.80;8.87;;;;;;;6.81;100.00;102119.16;2062250;28;20213;-61
2022/10/19 00:26:31;;;;;;;12.87;9.27;;;;;;;6.48;100.00;102072.22;2063968;28;20583;-62
2022/10/19 00:27:32;;;;;;;12.97;8.67;;;;;;;6.83;100.00;102122.34;2063324;28;20270;-62
2022/10/19 00:28:32;;;;;;;15.83;9.73;;;;;;;6.83;100.00;102125.09;2061992;28;20199;-62
2022/10/19 00:29:33;;;;;;;12.83;9.30;;;;;;;6.83;100.00;102114.06;2062803;28;20243;-62
2022/10/19 00:30:37;;;;;;;17.17;9.80;;;;;;;6.83;100.00;102114.06;2063645;28;20198;-62
2022/10/19 00:31:38;;;;;;;12.93;9.20;;;;;;;6.32;100.00;102029.47;2063279;28;20190;-61
2022/10/19 00:32:38;;;;;;;12.35;8.90;;;;;;;6.45;100.00;102056.44;2063439;28;20293;-62
2022/10/19 00:33:40;;;;;;;13.83;9.30;;;;;;;6.83;100.00;102125.09;2062909;28;20246;-61
2022/10/19 00:34:40;;;;;;;13.63;9.43;;;;;;;6.85;100.00;102108.19;2063238;28;20255;-61
2022/10/19 00:35:41;;;;;;;13.80;9.07;;;;;;;6.85;100.00;102114.50;2063089;28;20284;-62
2022/10/19 00:36:41;;;;;;;12.57;9.37;;;;;;;6.84;100.00;102112.13;2063589;28;20225;-62
2022/10/19 00:37:41;;;;;;;13.30;9.47;;;;;;;6.85;100.00;102110.94;2063101;28;20894;-61
2022/10/19 00:38:42;;;;;;;13.83;9.70;;;;;;;6.79;100.00;102093.16;2063769;28;20196;-61
2022/10/19 00:39:42;;;;;;;12.10;8.80;;;;;;;6.87;100.00;102109.41;2063212;28;20190;-62
2022/10/19 00:40:43;;;;;;;11.70;8.83;;;;;;;6.88;100.00;102105.47;2063660;28;20186;-62
2022/10/19 00:41:46;;;;;;;14.20;9.18;;;;;;;6.91;100.00;102109.47;2063059;28;20546;-61
2022/10/19 00:42:53;;;;;;;11.55;9.82;;;;;;;6.51;100.00;102043.94;2063645;28;20539;-61
2022/10/19 00:44:01;;;;;;;13.70;8.90;;;;;;;6.94;100.00;102105.97;2063670;28;20186;-61
2022/10/19 00:45:08;;;;;;;10.93;9.13;;;;;;;6.92;100.00;102095.31;2063108;28;20704;-62
2022/10/19 00:46:12;;;;;;;13.13;9.18;;;;;;;6.93;100.00;102098.88;2063974;28;20181;-62
2022/10/19 00:47:14;;;;;;;13.85;9.55;;;;;;;6.92;100.00;102092.56;2063092;28;20740;-62
2022/10/19 00:48:21;;;;;;;22.05;9.90;;;;;;;6.93;100.00;102091.38;2063637;28;20187;-62
2022/10/19 00:49:25;;;;;;;21.58;10.77;;;;;;;6.93;100.00;102087.84;2062408;28;20190;-61
2022/10/19 00:50:26;;;;;;;20.27;9.95;;;;;;;6.92;100.00;102087.03;2062437;28;20319;-63
2022/10/19 00:51:27;;;;;;;17.07;10.17;;;;;;;6.88;100.00;102096.44;2063134;28;20256;-61
2022/10/19 00:52:28;;;;;;;17.67;9.88;;;;;;;6.86;100.00;102091.28;2064056;28;20191;-61
2022/10/19 00:53:30;;;;;;;18.42;9.77;;;;;;;6.86;100.00;102084.97;2065127;28;20198;-61
2022/10/19 00:54:32;;;;;;;14.65;9.38;;;;;;;6.75;100.00;102075.75;2065552;28;20185;-62
2022/10/19 00:55:33;;;;;;;14.18;9.50;;;;;;;6.76;100.00;102091.94;2064840;28;20634;-62
2022/10/19 00:56:36;;;;;;;16.42;9.75;;;;;;;6.73;100.00;102086.38;2065452;28;20185;-62
2022/10/19 00:57:38;;;;;;;18.58;9.77;;;;;;;6.73;100.00;102089.13;2064545;28;20201;-62
2022/10/19 00:58:41;;;;;;;25.25;10.80;;;;;;;6.66;100.00;102078.78;2065196;28;20733;-62
2022/10/19 00:59:44;;;;;;;22.85;10.23;;;;;;;6.70;100.00;102081.59;2064296;28;20287;-62
2022/10/19 01:00:45;;;;;;;18.90;10.40;;;;;;;6.69;100.00;102082.75;2064716;28;20198;-62
2022/10/19 01:01:47;;;;;;;23.67;10.33;;;;;;;6.25;100.00;102019.13;2065191;28;20192;-62
2022/10/19 01:02:48;;;;;;;21.55;10.07;;;;;;;6.71;100.00;102083.22;2064967;28;20237;-62
2022/10/19 01:03:48;;;;;;;24.27;10.47;;;;;;;6.40;100.00;102036.69;2065041;28;20206;-61
2022/10/19 01:04:51;;;;;;;23.37;11.23;;;;;;;6.71;100.00;102080.44;2065155;28;20188;-61
2022/10/19 01:05:52;;;;;;;21.55;10.00;;;;;;;6.72;100.00;102080.06;2063593;28;20267;-62
2022/10/19 01:06:53;;;;;;;19.87;10.77;;;;;;;6.71;100.00;102072.19;2065075;28;20236;-63
2022/10/19 01:07:55;;;;;;;22.27;10.80;;;;;;;6.31;100.00;102012.16;2064801;28;20667;-62
2022/10/19 01:08:56;;;;;;;22.02;10.65;;;;;;;6.76;100.00;102069.13;2064301;28;20261;-62
2022/10/19 01:09:57;;;;;;;21.80;10.30;;;;;;;6.74;100.00;102076.94;2064904;28;20668;-62
2022/10/19 01:11:23;;;;;;;19.07;10.20;;;;;;;6.74;100.00;102075.00;2065091;28;20205;-62
2022/10/19 01:12:48;;;;;;;19.50;10.35;;;;;;;6.72;100.00;102073.78;2063961;28;20568;-62
2022/10/19 01:14:05;;;;;;;20.80;9.30;;;;;;;6.71;100.00;102070.22;2064559;28;20437;-62
2022/10/19 01:15:08;;;;;;;18.27;9.77;;;;;;;6.71;100.00;102058.41;2064772;28;20218;-62
2022/10/19 01:16:47;;;;;;;15.68;9.60;;;;;;;6.72;100.00;102069.03;2064663;28;20276;-62
2022/10/19 01:17:57;;;;;;;21.17;9.48;;;;;;;6.73;100.00;102067.09;2064734;28;20175;-62
2022/10/19 01:19:12;;;;;;;16.83;9.25;;;;;;;6.06;100.00;101966.16;2065139;28;20190;-62
2022/10/19 01:20:37;;;;;;;19.58;9.48;;;;;;;6.70;100.00;102065.88;2065372;28;20184;-62
2022/10/19 01:21:58;;;;;;;19.02;9.65;;;;;;;6.71;100.00;102058.41;2064904;28;20178;-61
2022/10/19 01:23:30;;;;;;;15.93;9.63;;;;;;;6.71;100.00;102059.19;2064781;28;20193;-61
2022/10/19 01:24:41;;;;;;;18.02;9.00;;;;;;;6.72;100.00;102054.50;2065024;28;20190;-61
2022/10/19 01:26:12;;;;;;;19.42;9.73;;;;;;;6.72;100.00;102054.50;2064092;28;20214;-62
2022/10/19 01:27:13;;;;;;;16.02;9.65;;;;;;;6.73;100.00;102053.31;2063077;28;20704;-62
2022/10/19 01:28:31;;;;;;;20.43;9.73;;;;;;;6.73;100.00;102047.81;2064869;28;20249;-62
2022/10/19 01:29:53;;;;;;;18.58;9.25;;;;;;;6.70;100.00;102046.59;2064771;28;20209;-62
2022/10/19 01:31:18;;;;;;;14.60;8.85;;;;;;;6.66;100.00;102042.97;2064852;28;20189;-62
2022/10/19 01:32:54;;;;;;;17.73;9.27;;;;;;;6.69;100.00;102038.69;2064816;28;20244;-62
2022/10/19 01:34:16;;;;;;;15.85;9.32;;;;;;;6.65;100.00;102035.88;2064382;28;20275;-61
2022/10/19 01:35:21;;;;;;;15.15;8.82;;;;;;;6.68;100.00;102034.34;2063034;28;20556;-61
2022/10/19 01:36:25;;;;;;;18.13;8.70;;;;;;;6.68;100.00;102031.59;2065268;28;20670;-62
2022/10/19 01:37:49;;;;;;;15.88;8.70;;;;;;;6.68;100.00;102039.84;2064841;28;20642;-63
2022/10/19 01:39:36;;;;;;;14.95;9.05;;;;;;;6.66;100.00;102031.97;2064417;28;20269;-62
2022/10/19 01:40:40;;;;;;;15.35;9.15;;;;;;;6.64;100.00;102034.31;2059890;28;20193;-62
2022/10/19 01:41:56;;;;;;;15.65;9.25;;;;;;;6.60;100.00;102027.13;2059597;28;20202;-61
2022/10/19 01:43:12;;;;;;;12.13;8.60;;;;;;;6.63;100.00;102032.72;2063527;28;20658;-62
2022/10/19 01:44:17;;;;;;;12.60;8.18;;;;;;;6.17;100.00;101956.91;2062848;28;20197;-62
2022/10/19 01:45:30;;;;;;;11.07;7.88;;;;;;;6.64;100.00;102028.78;2063069;28;20217;-62
2022/10/19 01:46:53;;;;;;;16.33;8.57;;;;;;;6.66;100.00;102023.69;2064435;28;20218;-62
2022/10/19 01:48:00;;;;;;;18.23;9.02;;;;;;;6.61;100.00;102028.75;2064449;28;20197;-62
2022/10/19 01:49:12;;;;;;;16.27;9.48;;;;;;;6.52;100.00;102017.97;2064851;28;20285;-62
2022/10/19 01:50:36;;;;;;;18.88;9.45;;;;;;;6.57;100.00;102025.91;2065219;28;20265;-62
2022/10/19 01:51:43;;;;;;;15.15;9.15;;;;;;;6.54;100.00;102047.91;2063891;28;20185;-62
2022/10/19 01:52:44;;;;;;;19.38;9.57;;;;;;;6.49;100.00;102027.00;2063843;28;20175;-62
2022/10/19 01:53:50;;;;;;;24.17;9.67;;;;;;;6.12;100.00;101979.22;2064742;28;20678;-61
2022/10/19 01:54:55;;;;;;;18.75;9.50;;;;;;;6.45;100.00;102031.66;2063843;28;20210;-62
2022/10/19 01:55:57;;;;;;;18.55;10.05;;;;;;;6.45;100.00;102028.91;2063500;28;20174;-62
2022/10/19 01:57:01;;;;;;;18.25;9.68;;;;;;;6.45;100.00;102028.91;2064544;28;20194;-61
2022/10/19 01:58:06;;;;;;;16.98;10.02;;;;;;;6.17;100.00;101986.38;2064608;28;20293;-61
2022/10/19 01:59:09;;;;;;;15.27;9.82;;;;;;;6.45;100.00;102028.91;2063802;28;20198;-61
2022/10/19 02:00:12;;;;;;;16.85;10.02;;;;;;;6.09;100.00;101970.91;2064387;28;20659;-61
2022/10/19 02:01:17;;;;;;;15.38;9.73;;;;;;;6.40;100.00;102029.22;2064783;28;20252;-61
2022/10/19 02:02:20;;;;;;;13.05;9.68;;;;;;;6.43;100.00;102031.25;2064426;28;20222;-61
2022/10/19 02:03:23;;;;;;;13.27;9.20;;;;;;;6.43;100.00;102036.75;2063506;28;20186;-61
2022/10/19 02:04:24;;;;;;;14.38;10.05;;;;;;;6.41;100.00;102046.53;2064084;28;20276;-61
2022/10/19 02:05:30;;;;;;;17.05;9.23;;;;;;;6.32;100.00;102027.53;2063850;28;20571;-61
2022/10/19 02:06:31;;;;;;;14.07;10.05;;;;;;;6.38;100.00;102039.81;2063877;28;20663;-61
2022/10/19 02:07:33;;;;;;;13.83;10.10;;;;;;;6.40;100.00;102033.94;2064739;28;20686;-62
2022/10/19 02:08:42;;;;;;;11.25;9.38;;;;;;;6.06;100.00;101993.66;2064793;28;20193;-61
2022/10/19 02:09:42;;;;;;;16.17;9.80;;;;;;;6.26;100.00;102026.22;2064414;28;20194;-61
2022/10/19 02:10:45;;;;;;;23.73;11.40;;;;;;;6.34;100.00;102041.72;2064447;28;20186;-62
2022/10/19 02:11:49;;;;;;;32.20;11.93;;;;;;;6.36;100.00;102035.84;2064345;28;20201;-61
2022/10/19 02:12:51;;;;;;;35.00;11.52;;;;;;;6.17;100.00;102008.38;2064456;28;20187;-61
2022/10/19 02:13:58;;;;;;;31.25;12.60;;;;;;;6.33;100.00;102031.88;2064166;28;20312;-61
2022/10/19 02:15:08;;;;;;;26.55;12.15;;;;;;;6.32;100.00;102026.72;2064067;28;20357;-61
2022/10/19 02:16:15;;;;;;;29.75;11.32;;;;;;;6.33;100.00;102022.81;2062996;28;20186;-61
2022/10/19 02:17:22;;;;;;;34.85;11.90;;;;;;;6.31;100.00;102031.41;2064179;28;20694;-62
2022/10/19 02:18:28;;;;;;;23.25;11.65;;;;;;;6.33;100.00;102026.34;2064614;28;20186;-61
2022/10/19 02:19:29;;;;;;;23.58;11.73;;;;;;;6.34;100.00;102030.69;2061572;28;20171;-62
2022/10/19 02:20:29;;;;;;;27.63;12.13;;;;;;;6.35;100.00;102031.50;2064696;28;20190;-61
2022/10/19 02:21:30;;;;;;;29.17;12.20;;;;;;;6.20;100.00;102007.66;2064845;28;20183;-61
2022/10/19 02:22:31;;;;;;;33.47;13.52;;;;;;;5.95;100.00;101971.47;2064406;28;20340;-62
2022/10/19 02:23:31;;;;;;;31.27;12.77;;;;;;;6.35;100.00;102029.53;2064133;28;20271;-62
2022/10/19 02:24:32;;;;;;;22.87;12.47;;;;;;;6.28;100.00;102012.91;2064726;28;20560;-61
2022/10/19 02:25:33;;;;;;;23.53;12.70;;;;;;;6.38;100.00;102023.28;2063776;28;20214;-61
2022/10/19 02:26:34;;;;;;;23.08;12.13;;;;;;;6.38;100.00;102030.75;2064759;28;20217;-61
2022/10/19 02:27:37;;;;;;;20.23;12.53;;;;;;;6.36;100.00;102022.84;2063667;28;20660;-61
2022/10/19 02:28:38;;;;;;;18.42;10.93;;;;;;;6.40;100.00;102025.69;2064626;28;20261;-61
2022/10/19 02:29:39;;;;;;;18.20;10.90;;;;;;;6.15;100.00;101989.47;2064748;28;20175;-62
2022/10/19 02:30:41;;;;;;;16.98;10.85;;;;;;;6.38;100.00;102039.81;2065178;28;20293;-61
2022/10/19 02:31:42;;;;;;;14.95;9.95;;;;;;;6.39;100.00;102029.56;2064052;28;20643;-62
2022/10/19 02:32:43;;;;;;;17.00;10.45;;;;;;;6.21;100.00;101993.50;2064655;28;20198;-61
2022/10/19 02:33:44;;;;;;;20.90;10.43;;;;;;;6.44;100.00;102018.25;2063657;28;20187;-61
2022/10/19 02:34:44;;;;;;;18.07;10.23;;;;;;;6.44;100.00;102005.28;2064479;28;20201;-61
2022/10/19 02:35:45;;;;;;;15.70;10.00;;;;;;;6.45;100.00;102012.38;2063218;28;20419;-62
2022/10/19 02:36:45;;;;;;;20.57;10.90;;;;;;;6.46;100.00;102000.19;2063265;28;20186;-62
2022/10/19 02:37:46;;;;;;;16.37;9.87;;;;;;;6.47;100.00;102006.50;2064459;28;20200;-62
2022/10/19 02:38:46;;;;;;;17.20;10.40;;;;;;;6.47;100.00;102001.78;2063918;28;20739;-62
2022/10/19 02:39:47;;;;;;;17.10;10.03;;;;;;;6.48;100.00;102006.13;2063471;28;20609;-62
2022/10/19 02:40:56;;;;;;;16.33;9.90;;;;;;;5.86;100.00;101902.16;2063439;28;20244;-62
2022/10/19 02:42:06;;;;;;;15.63;9.80;;;;;;;6.49;100.00;102004.97;2063441;28;20759;-62
2022/10/19 02:43:12;;;;;;;13.68;9.70;;;;;;;5.91;100.00;101909.31;2064441;28;20248;-62
2022/10/19 02:44:25;;;;;;;17.85;9.93;;;;;;;6.49;100.00;102004.16;2064317;28;20189;-61
2022/10/19 02:45:30;;;;;;;15.05;10.23;;;;;;;6.27;100.00;101967.28;2064033;28;20178;-61
2022/10/19 02:46:39;;;;;;;13.68;10.18;;;;;;;6.52;100.00;102003.44;2063192;28;20846;-62
2022/10/19 02:47:49;;;;;;;16.65;10.10;;;;;;;6.53;100.00;102007.75;2063972;28;20640;-62
2022/10/19 02:48:50;;;;;;;18.27;10.20;;;;;;;6.53;100.00;101999.50;2063928;28;20569;-62
2022/10/19 02:49:51;;;;;;;13.47;9.90;;;;;;;5.78;100.00;101881.19;2063876;28;20230;-62
2022/10/19 02:50:52;;;;;;;15.00;10.10;;;;;;;6.54;100.00;102001.09;2064058;28;20201;-61
2022/10/19 02:51:57;;;;;;;14.47;9.93;;;;;;;6.15;100.00;101934.44;2064365;28;20683;-62
2022/10/19 02:52:58;;;;;;;13.75;9.70;;;;;;;6.56;100.00;101998.78;2063542;28;20170;-62
2022/10/19 02:53:59;;;;;;;16.00;9.75;;;;;;;6.58;100.00;102004.69;2064776;28;20265;-61
2022/10/19 02:54:59;;;;;;;16.20;10.40;;;;;;;6.59;100.00;101995.25;2064259;28;20197;-61
2022/10/19 02:55:59;;;;;;;19.43;10.60;;;;;;;6.30;100.00;101946.47;2064128;28;20186;-61
2022/10/19 02:57:00;;;;;;;17.90;10.53;;;;;;;6.59;100.00;101992.50;2064161;28;20455;-62
2022/10/19 02:58:01;;;;;;;17.13;9.63;;;;;;;6.58;100.00;101997.22;2064004;28;20626;-62
2022/10/19 02:59:02;;;;;;;16.40;9.73;;;;;;;6.57;100.00;101987.34;2063928;28;20205;-62
2022/10/19 03:00:07;;;;;;;16.40;9.60;;;;;;;6.56;100.00;101994.03;2064330;28;20240;-62
2022/10/19 03:01:08;;;;;;;14.13;9.45;;;;;;;6.57;100.00;102001.13;2063863;28;20711;-61
2022/10/19 03:02:08;;;;;;;14.20;9.83;;;;;;;6.46;100.00;101989.16;2064532;28;20562;-62
2022/10/19 03:03:09;;;;;;;18.80;10.30;;;;;;;6.43;100.00;101995.44;2063684;28;20201;-61
2022/10/19 03:04:10;;;;;;;17.33;10.77;;;;;;;6.43;100.00;102000.13;2063470;28;20201;-61
2022/10/19 03:05:10;;;;;;;16.07;10.67;;;;;;;6.36;100.00;101989.81;2062873;28;20225;-61
2022/10/19 03:06:11;;;;;;;13.57;10.33;;;;;;;6.41;100.00;102000.50;2064090;28;20918;-61
2022/10/19 03:07:13;;;;;;;15.87;10.63;;;;;;;6.41;100.00;101997.75;2063045;28;20197;-62
2022/10/19 03:08:14;;;;;;;16.60;11.07;;;;;;;6.41;100.00;101995.00;2063382;28;20197;-61
2022/10/19 03:09:14;;;;;;;15.63;10.90;;;;;;;6.43;100.00;102000.94;2063552;28;20225;-61
2022/10/19 03:10:15;;;;;;;17.17;10.70;;;;;;;6.17;100.00;101970.66;2063730;28;20196;-61
2022/10/19 03:11:15;;;;;;;20.50;10.43;;;;;;;6.40;100.00;101993.41;2064232;28;20244;-62
2022/10/19 03:12:16;;;;;;;16.13;10.37;;;;;;;6.30;100.00;101982.25;2064308;28;20214;-61
2022/10/19 03:13:17;;;;;;;15.93;10.17;;;;;;;6.27;100.00;101975.53;2063481;28;20216;-61
2022/10/19 03:14:17;;;;;;;16.93;10.77;;;;;;;6.35;100.00;101981.94;2064459;28;20189;-61
2022/10/19 03:15:18;;;;;;;13.17;9.80;;;;;;;6.38;100.00;101997.69;2062907;28;20573;-61
2022/10/19 03:16:18;;;;;;;14.30;10.53;;;;;;;6.37;100.00;101993.38;2062712;28;20922;-61
2022/10/19 03:17:19;;;;;;;13.33;10.60;;;;;;;6.37;100.00;101994.16;2063820;28;20460;-62
2022/10/19 03:18:19;;;;;;;16.30;10.23;;;;;;;6.38;100.00;101981.19;2063611;28;20181;-62
2022/10/19 03:19:20;;;;;;;15.00;10.73;;;;;;;6.08;100.00;101928.84;2064481;28;20277;-61
2022/10/19 03:20:20;;;;;;;15.30;10.00;;;;;;;6.39;100.00;101983.56;2064453;28;20619;-62
2022/10/19 03:21:21;;;;;;;13.17;10.33;;;;;;;6.41;100.00;101975.72;2061869;28;20839;-61
2022/10/19 03:22:21;;;;;;;15.87;10.67;;;;;;;6.36;100.00;101967.78;2064058;28;20190;-61
2022/10/19 03:23:21;;;;;;;16.77;10.90;;;;;;;6.43;100.00;101975.34;2064067;28;20185;-61
2022/10/19 03:24:22;;;;;;;18.17;10.77;;;;;;;6.16;100.00;101952.53;2063583;28;20689;-62
2022/10/19 03:25:22;;;;;;;16.77;10.30;;;;;;;6.37;100.00;101983.16;2063064;28;20638;-61
2022/10/19 03:26:23;;;;;;;17.53;10.30;;;;;;;6.35;100.00;101984.69;2064427;28;20578;-61
2022/10/19 03:27:23;;;;;;;15.60;10.30;;;;;;;6.36;100.00;101984.31;2063711;28;20235;-61
2022/10/19 03:28:24;;;;;;;15.60;11.20;;;;;;;6.35;100.00;101977.22;2063837;28;20646;-61
2022/10/19 03:29:24;;;;;;;14.30;10.53;;;;;;;6.34;100.00;101981.13;2061494;28;20200;-61
2022/10/19 03:30:25;;;;;;;15.67;10.20;;;;;;;6.35;100.00;101979.97;2063388;28;20189;-61
2022/10/19 03:31:26;;;;;;;15.33;10.53;;;;;;;6.36;100.00;101978.78;2063793;28;20198;-61
2022/10/19 03:32:26;;;;;;;15.60;10.60;;;;;;;6.35;100.00;101984.69;2063698;28;20257;-61
2022/10/19 03:33:26;;;;;;;17.37;10.57;;;;;;;6.32;100.00;101980.72;2063509;28;20181;-62
2022/10/19 03:34:27;;;;;;;14.73;10.93;;;;;;;6.32;100.00;101985.44;2063767;28;20244;-61
2022/10/19 03:35:27;;;;;;;17.00;10.80;;;;;;;6.26;100.00;101984.16;2063688;28;20276;-61
2022/10/19 03:36:29;;;;;;;18.47;11.00;;;;;;;6.26;100.00;101978.66;2063335;28;20196;-61
2022/10/19 03:37:29;;;;;;;14.65;11.00;;;;;;;6.31;100.00;101981.88;2063543;28;20273;-61
2022/10/19 03:38:30;;;;;;;16.23;9.93;;;;;;;6.32;100.00;101986.22;2064280;28;20185;-61
2022/10/19 03:39:30;;;;;;;15.83;10.30;;;;;;;5.94;100.00;101927.84;2062564;28;20201;-61
2022/10/19 03:40:31;;;;;;;17.83;10.20;;;;;;;6.30;100.00;101979.50;2063350;28;20276;-61
2022/10/19 03:41:34;;;;;;;13.13;9.73;;;;;;;6.31;100.00;101983.84;2063915;28;20260;-61
2022/10/19 03:42:34;;;;;;;16.40;10.18;;;;;;;6.30;100.00;101979.50;2064382;28;20267;-61
2022/10/19 03:43:35;;;;;;;14.83;10.20;;;;;;;6.29;100.00;101992.47;2063076;28;20197;-61
2022/10/19 03:44:35;;;;;;;14.43;10.03;;;;;;;6.27;100.00;101977.47;2064002;28;20198;-61
2022/10/19 03:45:35;;;;;;;19.10;9.90;;;;;;;6.22;100.00;101975.84;2063458;28;20212;-61
2022/10/19 03:46:37;;;;;;;16.00;9.70;;;;;;;6.21;100.00;101977.00;2063937;28;20284;-61
2022/10/19 03:47:37;;;;;;;16.50;10.55;;;;;;;6.22;100.00;101975.03;2063542;28;20655;-61
2022/10/19 03:48:38;;;;;;;16.70;10.57;;;;;;;6.21;100.00;101985.25;2063722;28;20556;-62
2022/10/19 03:49:38;;;;;;;15.20;10.20;;;;;;;6.21;100.00;101971.47;2063126;28;20189;-61
2022/10/19 03:50:39;;;;;;;15.30;11.00;;;;;;;6.19;100.00;101984.84;2064412;28;20186;-61
2022/10/19 03:51:39;;;;;;;14.53;10.20;;;;;;;5.54;100.00;101867.03;2063415;28;20245;-61
2022/10/19 03:52:40;;;;;;;17.97;11.10;;;;;;;6.23;100.00;101977.44;2063787;28;20436;-61
2022/10/19 03:53:40;;;;;;;15.67;11.03;;;;;;;6.22;100.00;101975.03;2063789;28;20252;-62
2022/10/19 03:54:41;;;;;;;16.67;11.03;;;;;;;5.48;100.00;101885.00;2063819;28;20277;-62
2022/10/19 03:55:41;;;;;;;29.50;12.03;;;;;;;6.06;100.00;101983.44;2063174;28;20248;-61
2022/10/19 03:56:42;;;;;;;20.73;10.90;;;;;;;6.06;100.00;101986.19;2063878;28;20189;-61
2022/10/19 03:57:43;;;;;;;15.53;11.43;;;;;;;6.05;100.00;101972.81;2062948;28;20212;-62
2022/10/19 03:58:46;;;;;;;14.57;10.53;;;;;;;5.88;100.00;101957.59;2064108;28;20244;-61
2022/10/19 03:59:47;;;;;;;14.95;10.68;;;;;;;5.85;100.00;101950.06;2063803;28;20186;-61
2022/10/19 04:00:48;;;;;;;16.42;10.43;;;;;;;6.04;100.00;101969.25;2062438;28;20196;-61
2022/10/19 04:01:48;;;;;;;17.57;10.70;;;;;;;6.03;100.00;101964.13;2061309;28;20201;-61
2022/10/19 04:02:48;;;;;;;22.57;10.53;;;;;;;6.06;100.00;101960.66;2062550;28;20722;-61
2022/10/19 04:04:00;;;;;;;18.00;10.20;;;;;;;5.96;100.00;101962.06;2060458;28;20291;-61
2022/10/19 04:05:01;;;;;;;12.93;10.05;;;;;;;5.85;100.00;101955.59;2063104;28;20179;-59
2022/10/19 04:06:07;;;;;;;12.63;10.37;;;;;;;5.97;100.00;101968.34;2063203;28;20205;-59
2022/10/19 04:07:07;;;;;;;15.98;10.70;;;;;;;5.97;100.00;101962.84;2063586;28;20617;-59
2022/10/19 04:08:07;;;;;;;12.43;10.73;;;;;;;5.60;100.00;101912.31;2062358;28;20247;-59
2022/10/19 04:09:12;;;;;;;14.87;10.87;;;;;;;5.92;100.00;101972.22;2064306;28;20288;-62
2022/10/19 04:10:12;;;;;;;16.80;11.30;;;;;;;5.94;100.00;101971.88;2065373;28;20554;-61
2022/10/19 04:11:14;;;;;;;12.40;10.27;;;;;;;5.92;100.00;101965.91;2063085;28;20198;-62
2022/10/19 04:12:14;;;;;;;18.38;10.65;;;;;;;5.96;100.00;101958.53;2063108;28;20184;-62
2022/10/19 04:13:15;;;;;;;22.23;10.90;;;;;;;6.00;100.00;101959.38;2063127;28;20700;-60
2022/10/19 04:14:18;;;;;;;14.30;10.40;;;;;;;6.01;100.00;101952.69;2063603;28;20182;-60
2022/10/19 04:15:19;;;;;;;18.48;11.18;;;;;;;6.01;100.00;101956.22;2060781;28;20202;-57
2022/10/19 04:16:21;;;;;;;14.27;10.20;;;;;;;6.05;100.00;101951.59;2062472;28;20258;-62
2022/10/19 04:17:21;;;;;;;16.15;10.50;;;;;;;6.07;100.00;101945.72;2060963;28;20194;-59
2022/10/19 04:18:22;;;;;;;15.33;10.13;;;;;;;6.08;100.00;101937.09;2063756;28;20229;-61
2022/10/19 04:19:23;;;;;;;17.20;10.50;;;;;;;6.12;100.00;101937.94;2061570;28;20704;-62
2022/10/19 04:20:23;;;;;;;16.60;10.68;;;;;;;6.12;100.00;101931.63;2063842;28;20563;-61
2022/10/19 04:21:32;;;;;;;16.23;10.17;;;;;;;6.15;100.00;101930.91;2062414;28;20281;-64
2022/10/19 04:22:33;;;;;;;15.35;11.55;;;;;;;6.15;100.00;101934.44;2064405;28;20194;-60
2022/10/19 04:23:34;;;;;;;17.87;11.70;;;;;;;6.18;100.00;101939.22;2061864;28;20201;-69
2022/10/19 04:24:35;;;;;;;16.13;11.38;;;;;;;6.22;100.00;101931.00;2063698;28;20182;-62
2022/10/19 04:25:35;;;;;;;24.50;16.57;;;;;;;6.24;100.00;101942.41;2063563;28;20209;-59
2022/10/19 04:26:47;;;;;;;21.87;16.67;;;;;;;6.24;100.00;101929.47;2064222;28;20338;-60
2022/10/19 04:27:48;;;;;;;20.10;14.60;;;;;;;6.27;100.00;101938.94;2063798;28;20178;-59
2022/10/19 04:28:48;;;;;;;20.17;14.80;;;;;;;6.28;100.00;101930.31;2064631;28;20183;-66
2022/10/19 04:29:49;;;;;;;24.83;13.13;;;;;;;6.23;100.00;101919.63;2063316;28;20214;-62
2022/10/19 04:30:49;;;;;;;23.27;13.47;;;;;;;6.24;100.00;101932.22;2062267;28;20187;-59
2022/10/19 04:31:51;;;;;;;20.43;12.23;;;;;;;6.31;100.00;101929.56;2064151;28;20189;-64
2022/10/19 04:32:51;;;;;;;24.52;13.07;;;;;;;6.31;100.00;101929.56;2062742;28;20587;-60
2022/10/19 04:33:52;;;;;;;21.77;13.23;;;;;;;6.34;100.00;101914.25;2064039;28;20205;-61
2022/10/19 04:34:52;;;;;;;21.70;13.53;;;;;;;6.29;100.00;101900.81;2063320;28;20280;-61
2022/10/19 04:36:00;;;;;;;24.10;13.87;;;;;;;6.37;100.00;101914.31;2062745;28;20236;-62
2022/10/19 04:37:01;;;;;;;22.48;13.13;;;;;;;6.29;100.00;101907.13;2062745;28;20200;-59
2022/10/19 04:38:01;;;;;;;22.77;14.53;;;;;;;6.39;100.00;101913.94;2063692;28;20213;-61
2022/10/19 04:39:03;;;;;;;27.40;13.37;;;;;;;6.40;100.00;101924.56;2063616;28;21175;-62
2022/10/19 04:40:04;;;;;;;26.75;14.30;;;;;;;6.30;100.00;101916.97;2063657;28;20540;-60
2022/10/19 04:41:13;;;;;;;25.30;13.32;;;;;;;6.38;100.00;101913.16;2063200;28;20219;-62
2022/10/19 04:42:14;;;;;;;31.35;13.45;;;;;;;6.42;100.00;101913.19;2064481;28;20167;-61
2022/10/19 04:43:14;;;;;;;25.83;13.40;;;;;;;6.45;100.00;101913.22;2064753;28;20184;-61
2022/10/19 04:44:15;;;;;;;29.30;13.37;;;;;;;6.22;100.00;101887.75;2063245;28;20298;-61
2022/10/19 04:45:15;;;;;;;28.67;13.70;;;;;;;6.33;100.00;101910.72;2063766;28;20179;-61
2022/10/19 04:46:18;;;;;;;30.47;12.77;;;;;;;6.34;100.00;101915.06;2064243;28;20178;-61
2022/10/19 04:47:18;;;;;;;33.58;14.30;;;;;;;6.28;100.00;101910.25;2061813;28;20273;-61
2022/10/19 04:48:18;;;;;;;38.83;15.53;;;;;;;6.22;100.00;101914.47;2064149;28;20219;-60
2022/10/19 04:49:19;;;;;;;30.27;14.80;;;;;;;6.22;100.00;101911.72;2060100;28;20202;-60
2022/10/19 04:50:19;;;;;;;32.87;15.40;;;;;;;6.24;100.00;101912.16;2061757;28;20321;-63